Main page
METAR-TAF:

METAR-TAF

Airports :

Waynesville-St. Robert Regional Airport

Fort Leonard Wood, Missouri, United States

latitude: 37-44N, longitude: 092-08W, elevation: 1158 ft

Current weather observation

The report was made 59 minutes ago, at 03:55 UTC
Calm wind
Temperature 75°F
Humidity 83%
Pressure 30.22 in. Hg
Visibility: 10 miles
Clear sky

METAR: KTBN 200355Z AUTO 00000KT 10SM CLR 24/21 A3022 RMK AO2 SLP225 T02370206 $

Time: 23:54 (04:54 UTC)


TAF: missing

Weather observations and forecasts of more than 4000 airports (METAR and TAF reports).

The available stations are represented by yellow and red dots on the map.

Hover mouse over dot to see the name of the station.

Then click to see weather observations and forecasts.

To change the map : click on the green buttons with a black cross to zoom in, on the green button with a dash to zoom out, or on the green arrows for adjacent maps.


METAR-TAF: